sensor_id;sensor_type;location;lat;lon;timestamp;pressure;altitude;pressure_sealevel;temperature;humidity
19108;BME280;9686;48.832;9.126;2023-02-17T00:03:45;98995.00;;;13.16;nan
19108;BME280;9686;48.832;9.126;2023-02-17T00:06:15;98992.44;;;13.05;nan
19108;BME280;9686;48.832;9.126;2023-02-17T00:08:41;98992.41;;;13.14;nan
19108;BME280;9686;48.832;9.126;2023-02-17T00:11:06;98993.31;;;13.04;nan
19108;BME280;9686;48.832;9.126;2023-02-17T00:13:32;98991.59;;;13.02;nan
19108;BME280;9686;48.832;9.126;2023-02-17T00:15:58;98983.72;;;12.95;nan
19108;BME280;9686;48.832;9.126;2023-02-17T00:18:23;98981.97;;;12.99;nan
19108;BME280;9686;48.832;9.126;2023-02-17T00:20:48;98981.09;;;12.98;nan
19108;BME280;9686;48.832;9.126;2023-02-17T00:23:14;98985.56;;;12.77;nan
19108;BME280;9686;48.832;9.126;2023-02-17T00:25:39;98980.31;;;12.78;nan
19108;BME280;9686;48.832;9.126;2023-02-17T00:28:04;98981.19;;;12.71;nan
19108;BME280;9686;48.832;9.126;2023-02-17T00:30:30;98977.69;;;12.74;nan
19108;BME280;9686;48.832;9.126;2023-02-17T00:32:55;98975.94;;;12.83;nan
19108;BME280;9686;48.832;9.126;2023-02-17T00:35:20;98973.34;;;12.76;nan
19108;BME280;9686;48.832;9.126;2023-02-17T00:37:46;98975.94;;;12.80;nan
19108;BME280;9686;48.832;9.126;2023-02-17T00:40:12;98967.22;;;12.80;nan
19108;BME280;9686;48.832;9.126;2023-02-17T00:42:37;98973.31;;;12.82;nan
19108;BME280;9686;48.832;9.126;2023-02-17T00:45:03;98968.09;;;12.70;nan
19108;BME280;9686;48.832;9.126;2023-02-17T00:47:28;98966.38;;;12.76;nan
19108;BME280;9686;48.832;9.126;2023-02-17T00:49:53;98962.00;;;12.71;nan
19108;BME280;9686;48.832;9.126;2023-02-17T00:52:19;98968.97;;;12.67;nan
19108;BME280;9686;48.832;9.126;2023-02-17T00:54:44;98975.13;;;12.52;nan
19108;BME280;9686;48.832;9.126;2023-02-17T00:57:10;98976.00;;;12.59;nan
19108;BME280;9686;48.832;9.126;2023-02-17T00:59:35;98981.19;;;12.63;nan
19108;BME280;9686;48.832;9.126;2023-02-17T01:02:00;98980.31;;;12.68;nan
19108;BME280;9686;48.832;9.126;2023-02-17T01:04:26;98979.47;;;12.49;nan
19108;BME280;9686;48.832;9.126;2023-02-17T01:06:51;98976.84;;;12.61;nan
19108;BME280;9686;48.832;9.126;2023-02-17T01:09:16;98978.59;;;12.63;nan
19108;BME280;9686;48.832;9.126;2023-02-17T01:11:42;98982.03;;;12.75;nan
19108;BME280;9686;48.832;9.126;2023-02-17T01:14:09;98973.38;;;12.60;nan
19108;BME280;9686;48.832;9.126;2023-02-17T01:16:38;98966.34;;;12.70;nan
19108;BME280;9686;48.832;9.126;2023-02-17T01:19:15;98978.63;;;12.54;nan
19108;BME280;9686;48.832;9.126;2023-02-17T01:21:41;98970.75;;;12.59;nan
19108;BME280;9686;48.832;9.126;2023-02-17T01:24:07;98967.28;;;12.46;nan
19108;BME280;9686;48.832;9.126;2023-02-17T01:26:34;98965.53;;;12.39;nan
19108;BME280;9686;48.832;9.126;2023-02-17T01:29:00;98970.75;;;12.42;nan
19108;BME280;9686;48.832;9.126;2023-02-17T01:31:27;98958.56;;;12.38;nan
19108;BME280;9686;48.832;9.126;2023-02-17T01:33:54;98962.06;;;12.37;nan
19108;BME280;9686;48.832;9.126;2023-02-17T01:36:20;98962.06;;;12.35;nan
19108;BME280;9686;48.832;9.126;2023-02-17T01:38:45;98959.44;;;12.39;nan
19108;BME280;9686;48.832;9.126;2023-02-17T01:41:12;98956.81;;;12.40;nan
19108;BME280;9686;48.832;9.126;2023-02-17T01:43:38;98951.63;;;12.28;nan
19108;BME280;9686;48.832;9.126;2023-02-17T01:46:05;98951.59;;;12.22;nan
19108;BME280;9686;48.832;9.126;2023-02-17T01:51:01;98930.75;;;11.97;nan
19108;BME280;9686;48.832;9.126;2023-02-17T01:53:33;98934.19;;;11.96;nan
19108;BME280;9686;48.832;9.126;2023-02-17T01:56:00;98942.03;;;11.87;nan
19108;BME280;9686;48.832;9.126;2023-02-17T01:58:26;98937.69;;;11.82;nan
19108;BME280;9686;48.832;9.126;2023-02-17T02:00:54;98942.00;;;11.72;nan
19108;BME280;9686;48.832;9.126;2023-02-17T02:03:22;98947.25;;;11.80;nan
19108;BME280;9686;48.832;9.126;2023-02-17T02:05:48;98943.72;;;11.68;nan
19108;BME280;9686;48.832;9.126;2023-02-17T02:08:13;98936.75;;;11.58;nan
19108;BME280;9686;48.832;9.126;2023-02-17T02:10:39;98936.69;;;11.37;nan
19108;BME280;9686;48.832;9.126;2023-02-17T02:13:05;98940.19;;;11.40;nan
19108;BME280;9686;48.832;9.126;2023-02-17T02:15:39;98943.72;;;11.52;nan
19108;BME280;9686;48.832;9.126;2023-02-17T02:18:23;98941.97;;;11.55;nan
19108;BME280;9686;48.832;9.126;2023-02-17T02:26:48;98931.53;;;11.67;nan
19108;BME280;9686;48.832;9.126;2023-02-17T02:29:34;98921.09;;;11.66;nan
19108;BME280;9686;48.832;9.126;2023-02-17T02:32:38;98923.75;;;11.93;nan
19108;BME280;9686;48.832;9.126;2023-02-17T02:35:28;98917.66;;;12.02;nan
19108;BME280;9686;48.832;9.126;2023-02-17T02:38:13;98909.78;;;12.22;nan
19108;BME280;9686;48.832;9.126;2023-02-17T02:40:45;98904.56;;;12.26;nan
19108;BME280;9686;48.832;9.126;2023-02-17T02:43:11;98909.75;;;12.40;nan
19108;BME280;9686;48.832;9.126;2023-02-17T02:45:37;98903.66;;;12.53;nan
19108;BME280;9686;48.832;9.126;2023-02-17T02:48:02;98909.75;;;12.52;nan
19108;BME280;9686;48.832;9.126;2023-02-17T02:53:34;98907.97;;;12.59;nan
19108;BME280;9686;48.832;9.126;2023-02-17T02:56:40;98899.25;;;12.64;nan
19108;BME280;9686;48.832;9.126;2023-02-17T03:04:51;98895.72;;;12.79;nan
19108;BME280;9686;48.832;9.126;2023-02-17T03:10:04;98885.25;;;12.78;nan
19108;BME280;9686;48.832;9.126;2023-02-17T03:12:29;98889.63;;;12.77;nan
19108;BME280;9686;48.832;9.126;2023-02-17T03:15:07;98884.41;;;12.63;nan
19108;BME280;9686;48.832;9.126;2023-02-17T03:17:33;98874.78;;;12.76;nan
19108;BME280;9686;48.832;9.126;2023-02-17T03:20:00;98875.63;;;12.83;nan
19108;BME280;9686;48.832;9.126;2023-02-17T03:22:32;98873.06;;;12.71;nan
19108;BME280;9686;48.832;9.126;2023-02-17T03:24:58;98884.31;;;12.91;nan
19108;BME280;9686;48.832;9.126;2023-02-17T03:27:25;98893.13;;;12.76;nan
19108;BME280;9686;48.832;9.126;2023-02-17T03:29:51;98888.69;;;12.86;nan
19108;BME280;9686;48.832;9.126;2023-02-17T03:32:16;98892.22;;;12.79;nan
19108;BME280;9686;48.832;9.126;2023-02-17T03:34:42;98896.53;;;12.90;nan
19108;BME280;9686;48.832;9.126;2023-02-17T03:37:07;98889.50;;;13.05;nan
19108;BME280;9686;48.832;9.126;2023-02-17T03:39:32;98880.75;;;13.06;nan
19108;BME280;9686;48.832;9.126;2023-02-17T03:41:57;98893.88;;;13.01;nan
19108;BME280;9686;48.832;9.126;2023-02-17T03:44:23;98893.84;;;13.09;nan
19108;BME280;9686;48.832;9.126;2023-02-17T03:46:48;98890.31;;;13.13;nan
19108;BME280;9686;48.832;9.126;2023-02-17T03:49:13;98891.25;;;13.00;nan
19108;BME280;9686;48.832;9.126;2023-02-17T03:51:39;98892.09;;;13.06;nan
19108;BME280;9686;48.832;9.126;2023-02-17T03:54:04;98890.34;;;13.07;nan
19108;BME280;9686;48.832;9.126;2023-02-17T03:56:30;98890.38;;;12.99;nan
19108;BME280;9686;48.832;9.126;2023-02-17T03:58:56;98888.66;;;12.93;nan
19108;BME280;9686;48.832;9.126;2023-02-17T04:01:21;98896.50;;;13.03;nan
19108;BME280;9686;48.832;9.126;2023-02-17T04:03:47;98891.25;;;12.98;nan
19108;BME280;9686;48.832;9.126;2023-02-17T04:06:12;98896.53;;;12.89;nan
19108;BME280;9686;48.832;9.126;2023-02-17T04:08:38;98907.06;;;12.78;nan
19108;BME280;9686;48.832;9.126;2023-02-17T04:11:05;98904.44;;;12.81;nan
19108;BME280;9686;48.832;9.126;2023-02-17T04:13:30;98906.97;;;12.92;nan
19108;BME280;9686;48.832;9.126;2023-02-17T04:15:56;98900.84;;;12.99;nan
19108;BME280;9686;48.832;9.126;2023-02-17T04:18:21;98897.41;;;12.88;nan
19108;BME280;9686;48.832;9.126;2023-02-17T04:20:48;98899.94;;;13.06;nan
19108;BME280;9686;48.832;9.126;2023-02-17T04:23:14;98905.22;;;13.02;nan
19108;BME280;9686;48.832;9.126;2023-02-17T04:25:40;98911.31;;;12.99;nan
19108;BME280;9686;48.832;9.126;2023-02-17T04:28:06;98909.56;;;13.03;nan
19108;BME280;9686;48.832;9.126;2023-02-17T04:30:32;98903.44;;;13.01;nan
19108;BME280;9686;48.832;9.126;2023-02-17T04:32:58;98899.97;;;13.02;nan
19108;BME280;9686;48.832;9.126;2023-02-17T04:35:24;98891.25;;;13.01;nan
19108;BME280;9686;48.832;9.126;2023-02-17T04:37:49;98892.97;;;13.07;nan
19108;BME280;9686;48.832;9.126;2023-02-17T04:40:15;98894.66;;;13.17;nan
19108;BME280;9686;48.832;9.126;2023-02-17T04:42:40;98887.69;;;13.16;nan
19108;BME280;9686;48.832;9.126;2023-02-17T04:45:06;98886.78;;;13.17;nan
19108;BME280;9686;48.832;9.126;2023-02-17T04:47:32;98878.94;;;13.15;nan
19108;BME280;9686;48.832;9.126;2023-02-17T04:49:57;98879.81;;;13.16;nan
19108;BME280;9686;48.832;9.126;2023-02-17T04:52:23;98877.19;;;13.16;nan
19108;BME280;9686;48.832;9.126;2023-02-17T04:54:48;98883.41;;;13.01;nan
19108;BME280;9686;48.832;9.126;2023-02-17T04:57:13;98882.56;;;12.93;nan
19108;BME280;9686;48.832;9.126;2023-02-17T04:59:39;98886.91;;;13.02;nan
19108;BME280;9686;48.832;9.126;2023-02-17T05:02:04;98884.22;;;13.11;nan
19108;BME280;9686;48.832;9.126;2023-02-17T05:04:29;98875.50;;;13.10;nan
19108;BME280;9686;48.832;9.126;2023-02-17T05:06:55;98876.34;;;13.20;nan
19108;BME280;9686;48.832;9.126;2023-02-17T05:09:20;98875.50;;;13.09;nan
19108;BME280;9686;48.832;9.126;2023-02-17T05:11:46;98876.41;;;13.00;nan
19108;BME280;9686;48.832;9.126;2023-02-17T05:14:11;98877.28;;;13.01;nan
19108;BME280;9686;48.832;9.126;2023-02-17T05:16:36;98879.91;;;12.99;nan
19108;BME280;9686;48.832;9.126;2023-02-17T05:19:02;98879.91;;;13.05;nan
19108;BME280;9686;48.832;9.126;2023-02-17T05:21:27;98882.53;;;12.96;nan
19108;BME280;9686;48.832;9.126;2023-02-17T05:23:53;98878.13;;;13.07;nan
19108;BME280;9686;48.832;9.126;2023-02-17T05:26:18;98874.63;;;13.10;nan
19108;BME280;9686;48.832;9.126;2023-02-17T05:28:43;98871.16;;;13.05;nan
19108;BME280;9686;48.832;9.126;2023-02-17T05:31:09;98876.41;;;13.03;nan
19108;BME280;9686;48.832;9.126;2023-02-17T05:33:34;98881.66;;;12.97;nan
19108;BME280;9686;48.832;9.126;2023-02-17T05:36:05;98886.88;;;12.98;nan
19108;BME280;9686;48.832;9.126;2023-02-17T05:38:31;98886.88;;;13.05;nan
19108;BME280;9686;48.832;9.126;2023-02-17T05:40:56;98883.34;;;13.12;nan
19108;BME280;9686;48.832;9.126;2023-02-17T05:43:22;98878.94;;;13.15;nan
19108;BME280;9686;48.832;9.126;2023-02-17T05:45:47;98889.47;;;13.06;nan
19108;BME280;9686;48.832;9.126;2023-02-17T05:48:13;98885.94;;;13.16;nan
19108;BME280;9686;48.832;9.126;2023-02-17T05:50:38;98895.50;;;13.31;nan
19108;BME280;9686;48.832;9.126;2023-02-17T05:53:04;98896.41;;;13.15;nan
19108;BME280;9686;48.832;9.126;2023-02-17T05:55:29;98903.38;;;13.20;nan
19108;BME280;9686;48.832;9.126;2023-02-17T05:57:55;98906.88;;;13.15;nan
19108;BME280;9686;48.832;9.126;2023-02-17T06:00:20;98903.41;;;13.13;nan
19108;BME280;9686;48.832;9.126;2023-02-17T06:02:46;98913.00;;;13.18;nan
19108;BME280;9686;48.832;9.126;2023-02-17T06:05:11;98906.88;;;13.15;nan
19108;BME280;9686;48.832;9.126;2023-02-17T06:07:36;98906.91;;;13.18;nan
19108;BME280;9686;48.832;9.126;2023-02-17T06:10:02;98905.19;;;13.06;nan
19108;BME280;9686;48.832;9.126;2023-02-17T06:12:27;98907.84;;;13.02;nan
19108;BME280;9686;48.832;9.126;2023-02-17T06:14:52;98910.44;;;12.98;nan
19108;BME280;9686;48.832;9.126;2023-02-17T06:17:18;98918.22;;;13.14;nan
19108;BME280;9686;48.832;9.126;2023-02-17T06:19:43;98913.88;;;13.11;nan
19108;BME280;9686;48.832;9.126;2023-02-17T06:22:08;98919.16;;;13.02;nan
19108;BME280;9686;48.832;9.126;2023-02-17T06:24:34;98916.53;;;12.97;nan
19108;BME280;9686;48.832;9.126;2023-02-17T06:27:00;98926.09;;;13.12;nan
19108;BME280;9686;48.832;9.126;2023-02-17T06:29:25;98923.47;;;13.12;nan
19108;BME280;9686;48.832;9.126;2023-02-17T06:31:52;98920.00;;;13.10;nan
19108;BME280;9686;48.832;9.126;2023-02-17T06:34:17;98925.22;;;13.12;nan
19108;BME280;9686;48.832;9.126;2023-02-17T06:36:42;98925.22;;;13.13;nan
19108;BME280;9686;48.832;9.126;2023-02-17T06:39:08;98924.34;;;13.17;nan
19108;BME280;9686;48.832;9.126;2023-02-17T06:41:34;98920.03;;;13.03;nan
19108;BME280;9686;48.832;9.126;2023-02-17T06:44:00;98919.97;;;13.13;nan
19108;BME280;9686;48.832;9.126;2023-02-17T06:46:25;98916.53;;;13.04;nan
19108;BME280;9686;48.832;9.126;2023-02-17T06:48:51;98919.16;;;13.02;nan
19108;BME280;9686;48.832;9.126;2023-02-17T06:51:16;98920.91;;;12.97;nan
19108;BME280;9686;48.832;9.126;2023-02-17T06:53:41;98926.97;;;13.11;nan
19108;BME280;9686;48.832;9.126;2023-02-17T06:56:06;98933.06;;;13.18;nan
19108;BME280;9686;48.832;9.126;2023-02-17T06:58:32;98936.53;;;13.15;nan
19108;BME280;9686;48.832;9.126;2023-02-17T07:00:59;98933.94;;;13.20;nan
19108;BME280;9686;48.832;9.126;2023-02-17T07:03:25;98937.44;;;13.17;nan
19108;BME280;9686;48.832;9.126;2023-02-17T07:05:50;98949.66;;;13.20;nan
19108;BME280;9686;48.832;9.126;2023-02-17T07:08:16;98939.97;;;13.37;nan
19108;BME280;9686;48.832;9.126;2023-02-17T07:10:41;98936.53;;;13.27;nan
19108;BME280;9686;48.832;9.126;2023-02-17T07:13:07;98940.94;;;13.18;nan
19108;BME280;9686;48.832;9.126;2023-02-17T07:15:32;98947.91;;;13.19;nan
19108;BME280;9686;48.832;9.126;2023-02-17T07:17:58;98948.78;;;13.18;nan
19108;BME280;9686;48.832;9.126;2023-02-17T07:20:24;98949.66;;;13.20;nan
19108;BME280;9686;48.832;9.126;2023-02-17T07:22:50;98942.59;;;13.34;nan
19108;BME280;9686;48.832;9.126;2023-02-17T07:25:15;98952.25;;;13.29;nan
19108;BME280;9686;48.832;9.126;2023-02-17T07:27:40;98958.28;;;13.37;nan
19108;BME280;9686;48.832;9.126;2023-02-17T07:30:06;98960.94;;;13.34;nan
19108;BME280;9686;48.832;9.126;2023-02-17T07:32:32;98956.59;;;13.29;nan
19108;BME280;9686;48.832;9.126;2023-02-17T07:34:57;98960.94;;;13.26;nan
19108;BME280;9686;48.832;9.126;2023-02-17T07:37:22;98962.69;;;13.32;nan
19108;BME280;9686;48.832;9.126;2023-02-17T07:39:48;98946.06;;;13.41;nan
19108;BME280;9686;48.832;9.126;2023-02-17T07:42:13;98957.34;;;13.50;nan
19108;BME280;9686;48.832;9.126;2023-02-17T07:44:39;98957.38;;;13.43;nan
19108;BME280;9686;48.832;9.126;2023-02-17T07:47:04;98961.69;;;13.53;nan
19108;BME280;9686;48.832;9.126;2023-02-17T07:49:29;98954.88;;;13.27;nan
19108;BME280;9686;48.832;9.126;2023-02-17T07:51:55;98964.41;;;13.36;nan
19108;BME280;9686;48.832;9.126;2023-02-17T07:54:20;98962.69;;;13.34;nan
19108;BME280;9686;48.832;9.126;2023-02-17T07:56:45;98963.59;;;13.20;nan
19108;BME280;9686;48.832;9.126;2023-02-17T07:59:11;98965.34;;;13.29;nan
19108;BME280;9686;48.832;9.126;2023-02-17T08:01:37;98964.41;;;13.36;nan
19108;BME280;9686;48.832;9.126;2023-02-17T08:04:03;98971.44;;;13.23;nan
19108;BME280;9686;48.832;9.126;2023-02-17T08:06:29;98967.00;;;13.42;nan
19108;BME280;9686;48.832;9.126;2023-02-17T08:08:56;98969.56;;;13.48;nan
19108;BME280;9686;48.832;9.126;2023-02-17T08:11:41;98964.34;;;13.48;nan
19108;BME280;9686;48.832;9.126;2023-02-17T08:14:27;98959.97;;;13.53;nan
19108;BME280;9686;48.832;9.126;2023-02-17T08:16:53;98965.16;;;13.63;nan
19108;BME280;9686;48.832;9.126;2023-02-17T08:19:18;98967.81;;;13.49;nan
19108;BME280;9686;48.832;9.126;2023-02-17T08:21:44;98964.31;;;13.50;nan
19108;BME280;9686;48.832;9.126;2023-02-17T08:24:09;98968.59;;;13.69;nan
19108;BME280;9686;48.832;9.126;2023-02-17T08:26:36;98976.50;;;13.63;nan
19108;BME280;9686;48.832;9.126;2023-02-17T08:29:01;98973.91;;;13.52;nan
19108;BME280;9686;48.832;9.126;2023-02-17T08:31:30;98968.69;;;13.54;nan
19108;BME280;9686;48.832;9.126;2023-02-17T08:33:57;98974.78;;;13.51;nan
19108;BME280;9686;48.832;9.126;2023-02-17T08:36:24;98978.31;;;13.53;nan
19108;BME280;9686;48.832;9.126;2023-02-17T08:38:51;98982.66;;;13.54;nan
19108;BME280;9686;48.832;9.126;2023-02-17T08:41:20;98973.00;;;13.64;nan
19108;BME280;9686;48.832;9.126;2023-02-17T08:43:47;98967.81;;;13.53;nan
19108;BME280;9686;48.832;9.126;2023-02-17T08:46:13;98966.00;;;13.66;nan
19108;BME280;9686;48.832;9.126;2023-02-17T08:48:39;98969.44;;;13.71;nan
19108;BME280;9686;48.832;9.126;2023-02-17T08:51:05;98968.56;;;13.71;nan
19108;BME280;9686;48.832;9.126;2023-02-17T08:53:31;98964.13;;;13.83;nan
19108;BME280;9686;48.832;9.126;2023-02-17T08:55:57;98964.13;;;13.85;nan
19108;BME280;9686;48.832;9.126;2023-02-17T08:58:22;98969.44;;;13.71;nan
19108;BME280;9686;48.832;9.126;2023-02-17T09:00:48;98971.25;;;13.62;nan
19108;BME280;9686;48.832;9.126;2023-02-17T09:03:13;98969.41;;;13.74;nan
19108;BME280;9686;48.832;9.126;2023-02-17T09:05:39;98957.16;;;13.84;nan
19108;BME280;9686;48.832;9.126;2023-02-17T09:08:04;98959.81;;;13.73;nan
19108;BME280;9686;48.832;9.126;2023-02-17T09:10:30;98958.84;;;13.88;nan
19108;BME280;9686;48.832;9.126;2023-02-17T09:12:55;98952.81;;;13.80;nan
19108;BME280;9686;48.832;9.126;2023-02-17T09:15:21;98958.91;;;13.79;nan
19108;BME280;9686;48.832;9.126;2023-02-17T09:17:46;98958.91;;;13.80;nan
19108;BME280;9686;48.832;9.126;2023-02-17T09:20:11;98957.91;;;13.95;nan
19108;BME280;9686;48.832;9.126;2023-02-17T09:22:37;98959.59;;;14.08;nan
19108;BME280;9686;48.832;9.126;2023-02-17T09:25:03;98961.50;;;13.86;nan
19108;BME280;9686;48.832;9.126;2023-02-17T09:27:28;98965.72;;;14.01;nan
19108;BME280;9686;48.832;9.126;2023-02-17T09:29:54;98965.66;;;14.13;nan
19108;BME280;9686;48.832;9.126;2023-02-17T09:32:19;98966.47;;;14.18;nan
19108;BME280;9686;48.832;9.126;2023-02-17T09:34:44;98983.13;;;14.14;nan
19108;BME280;9686;48.832;9.126;2023-02-17T09:37:17;98990.88;;;14.25;nan
19108;BME280;9686;48.832;9.126;2023-02-17T09:39:44;98976.78;;;14.41;nan
19108;BME280;9686;48.832;9.126;2023-02-17T09:42:21;98993.31;;;14.53;nan
19108;BME280;9686;48.832;9.126;2023-02-17T09:44:50;98985.53;;;14.43;nan
19108;BME280;9686;48.832;9.126;2023-02-17T09:47:23;98983.81;;;14.36;nan
19108;BME280;9686;48.832;9.126;2023-02-17T09:49:53;98980.13;;;14.57;nan
19108;BME280;9686;48.832;9.126;2023-02-17T09:52:35;98990.72;;;14.49;nan
19108;BME280;9686;48.832;9.126;2023-02-17T09:55:04;99002.84;;;14.63;nan
19108;BME280;9686;48.832;9.126;2023-02-17T10:00:14;98991.84;;;15.10;nan
19108;BME280;9686;48.832;9.126;2023-02-17T10:02:45;98998.69;;;15.23;nan
19108;BME280;9686;48.832;9.126;2023-02-17T10:05:18;99009.03;;;15.37;nan
19108;BME280;9686;48.832;9.126;2023-02-17T10:07:51;99003.63;;;15.48;nan
19108;BME280;9686;48.832;9.126;2023-02-17T10:10:23;99001.28;;;15.25;nan
19108;BME280;9686;48.832;9.126;2023-02-17T10:12:54;98986.38;;;15.27;nan
19108;BME280;9686;48.832;9.126;2023-02-17T10:15:30;98989.91;;;15.24;nan
19108;BME280;9686;48.832;9.126;2023-02-17T10:18:00;98992.25;;;15.47;nan
19108;BME280;9686;48.832;9.126;2023-02-17T10:20:33;98988.59;;;15.63;nan
19108;BME280;9686;48.832;9.126;2023-02-17T10:31:14;98982.38;;;16.26;nan
19108;BME280;9686;48.832;9.126;2023-02-17T10:33:54;98979.69;;;16.27;nan
19108;BME280;9686;48.832;9.126;2023-02-17T10:36:56;98983.19;;;16.29;nan
19108;BME280;9686;48.832;9.126;2023-02-17T10:39:33;98983.06;;;16.35;nan
19108;BME280;9686;48.832;9.126;2023-02-17T10:42:02;98967.50;;;16.23;nan
19108;BME280;9686;48.832;9.126;2023-02-17T10:44:30;98974.94;;;16.49;nan
19108;BME280;9686;48.832;9.126;2023-02-17T10:46:58;98966.44;;;16.33;nan
19108;BME280;9686;48.832;9.126;2023-02-17T10:49:33;98970.09;;;16.25;nan
19108;BME280;9686;48.832;9.126;2023-02-17T10:52:01;98973.22;;;16.48;nan
19108;BME280;9686;48.832;9.126;2023-02-17T10:54:32;98977.31;;;16.66;nan
19108;BME280;9686;48.832;9.126;2023-02-17T10:57:00;98965.03;;;16.63;nan
19108;BME280;9686;48.832;9.126;2023-02-17T10:59:34;98959.81;;;16.60;nan
19108;BME280;9686;48.832;9.126;2023-02-17T11:02:24;98954.13;;;16.85;nan
19108;BME280;9686;48.832;9.126;2023-02-17T11:04:52;98950.78;;;16.77;nan
19108;BME280;9686;48.832;9.126;2023-02-17T11:07:25;98950.38;;;16.98;nan
19108;BME280;9686;48.832;9.126;2023-02-17T11:12:48;98946.06;;;16.94;nan
19108;BME280;9686;48.832;9.126;2023-02-17T11:15:19;98942.66;;;16.87;nan
19108;BME280;9686;48.832;9.126;2023-02-17T11:17:52;98948.28;;;17.14;nan
19108;BME280;9686;48.832;9.126;2023-02-17T11:20:31;98935.69;;;16.85;nan
19108;BME280;9686;48.832;9.126;2023-02-17T11:25:42;98928.72;;;16.82;nan
19108;BME280;9686;48.832;9.126;2023-02-17T11:28:21;98927.72;;;16.88;nan
19108;BME280;9686;48.832;9.126;2023-02-17T11:30:55;98948.88;;;16.83;nan
19108;BME280;9686;48.832;9.126;2023-02-17T11:33:28;98950.94;;;16.69;nan
19108;BME280;9686;48.832;9.126;2023-02-17T11:35:55;98935.78;;;16.80;nan
19108;BME280;9686;48.832;9.126;2023-02-17T11:38:23;98942.13;;;16.70;nan
19108;BME280;9686;48.832;9.126;2023-02-17T11:41:03;98939.97;;;16.90;nan
19108;BME280;9686;48.832;9.126;2023-02-17T11:43:31;98939.09;;;16.91;nan
19108;BME280;9686;48.832;9.126;2023-02-17T11:46:39;98923.75;;;16.69;nan
19108;BME280;9686;48.832;9.126;2023-02-17T11:54:42;98933.59;;;17.02;nan
19108;BME280;9686;48.832;9.126;2023-02-17T11:57:39;98939.84;;;16.98;nan
19108;BME280;9686;48.832;9.126;2023-02-17T12:03:06;98938.41;;;16.80;nan
19108;BME280;9686;48.832;9.126;2023-02-17T12:06:16;98939.28;;;16.81;nan
19108;BME280;9686;48.832;9.126;2023-02-17T12:09:12;98939.34;;;16.78;nan
19108;BME280;9686;48.832;9.126;2023-02-17T12:11:53;98930.66;;;16.74;nan
19108;BME280;9686;48.832;9.126;2023-02-17T12:17:30;98932.91;;;16.94;nan
19108;BME280;9686;48.832;9.126;2023-02-17T12:34:18;98938.53;;;17.17;nan
19108;BME280;9686;48.832;9.126;2023-02-17T12:36:46;98933.13;;;17.25;nan
19108;BME280;9686;48.832;9.126;2023-02-17T12:39:20;98925.91;;;17.33;nan
19108;BME280;9686;48.832;9.126;2023-02-17T12:41:52;98930.22;;;17.37;nan
19108;BME280;9686;48.832;9.126;2023-02-17T12:44:31;98928.34;;;17.44;nan
19108;BME280;9686;48.832;9.126;2023-02-17T12:47:19;98924.91;;;17.39;nan
19108;BME280;9686;48.832;9.126;2023-02-17T12:49:53;98929.84;;;17.54;nan
19108;BME280;9686;48.832;9.126;2023-02-17T12:52:21;98916.66;;;17.54;nan
19108;BME280;9686;48.832;9.126;2023-02-17T13:00:12;98909.19;;;17.34;nan
19108;BME280;9686;48.832;9.126;2023-02-17T13:02:40;98920.31;;;17.48;nan
19108;BME280;9686;48.832;9.126;2023-02-17T13:05:17;98919.53;;;17.45;nan
19108;BME280;9686;48.832;9.126;2023-02-17T13:07:47;98919.78;;;17.33;nan
19108;BME280;9686;48.832;9.126;2023-02-17T13:10:33;98921.88;;;17.57;nan
19108;BME280;9686;48.832;9.126;2023-02-17T13:13:09;98911.59;;;17.46;nan
19108;BME280;9686;48.832;9.126;2023-02-17T13:15:39;98911.50;;;17.49;nan
19108;BME280;9686;48.832;9.126;2023-02-17T13:18:10;98920.53;;;17.38;nan
19108;BME280;9686;48.832;9.126;2023-02-17T13:20:40;98916.69;;;17.12;nan
19108;BME280;9686;48.832;9.126;2023-02-17T13:23:28;98920.72;;;17.30;nan
19108;BME280;9686;48.832;9.126;2023-02-17T13:28:36;98912.78;;;17.32;nan
19108;BME280;9686;48.832;9.126;2023-02-17T13:33:47;98910.69;;;17.47;nan
19108;BME280;9686;48.832;9.126;2023-02-17T13:36:32;98908.13;;;17.44;nan
19108;BME280;9686;48.832;9.126;2023-02-17T13:39:28;98907.72;;;17.61;nan
19108;BME280;9686;48.832;9.126;2023-02-17T13:41:55;98908.03;;;17.47;nan
19108;BME280;9686;48.832;9.126;2023-02-17T13:47:27;98906.97;;;17.56;nan
19108;BME280;9686;48.832;9.126;2023-02-17T13:49:55;98897.72;;;17.77;nan
19108;BME280;9686;48.832;9.126;2023-02-17T13:52:27;98899.91;;;17.94;nan
19108;BME280;9686;48.832;9.126;2023-02-17T13:54:58;98897.19;;;17.98;nan
19108;BME280;9686;48.832;9.126;2023-02-17T13:57:28;98889.72;;;17.80;nan
19108;BME280;9686;48.832;9.126;2023-02-17T14:02:45;98882.34;;;17.55;nan
19108;BME280;9686;48.832;9.126;2023-02-17T14:05:20;98882.22;;;17.62;nan
19108;BME280;9686;48.832;9.126;2023-02-17T14:07:47;98884.00;;;17.60;nan
19108;BME280;9686;48.832;9.126;2023-02-17T14:10:21;98871.88;;;17.52;nan
19108;BME280;9686;48.832;9.126;2023-02-17T14:12:47;98882.09;;;17.68;nan
19108;BME280;9686;48.832;9.126;2023-02-17T14:15:22;98884.72;;;17.68;nan
19108;BME280;9686;48.832;9.126;2023-02-17T14:17:48;98881.72;;;17.83;nan
19108;BME280;9686;48.832;9.126;2023-02-17T14:20:43;98886.59;;;18.00;nan
19108;BME280;9686;48.832;9.126;2023-02-17T14:23:10;98880.13;;;18.11;nan
19108;BME280;9686;48.832;9.126;2023-02-17T14:25:41;98884.41;;;17.81;nan
19108;BME280;9686;48.832;9.126;2023-02-17T14:28:22;98880.66;;;18.26;nan
19108;BME280;9686;48.832;9.126;2023-02-17T14:30:47;98893.28;;;18.13;nan
19108;BME280;9686;48.832;9.126;2023-02-17T14:35:59;98891.19;;;17.92;nan
19108;BME280;9686;48.832;9.126;2023-02-17T14:38:31;98888.38;;;17.99;nan
19108;BME280;9686;48.832;9.126;2023-02-17T14:40:59;98883.06;;;18.01;nan
19108;BME280;9686;48.832;9.126;2023-02-17T14:43:25;98879.53;;;17.63;nan
19108;BME280;9686;48.832;9.126;2023-02-17T14:45:51;98881.34;;;17.61;nan
19108;BME280;9686;48.832;9.126;2023-02-17T14:48:16;98878.13;;;17.48;nan
19108;BME280;9686;48.832;9.126;2023-02-17T14:50:43;98889.81;;;17.37;nan
19108;BME280;9686;48.832;9.126;2023-02-17T14:53:29;98893.59;;;17.25;nan
19108;BME280;9686;48.832;9.126;2023-02-17T14:58:30;98887.13;;;17.00;nan
19108;BME280;9686;48.832;9.126;2023-02-17T15:00:56;98889.41;;;17.15;nan
19108;BME280;9686;48.832;9.126;2023-02-17T15:03:21;98888.00;;;17.39;nan
19108;BME280;9686;48.832;9.126;2023-02-17T15:05:47;98873.31;;;17.29;nan
19108;BME280;9686;48.832;9.126;2023-02-17T15:08:18;98886.16;;;17.44;nan